Time;durP1;ratioP1;P1;durP2;ratioP2;P2;SDS_P1;SDS_P2;PMS_P1;PMS_P2;Temp;Humidity;BMP_temperature;BMP_pressure;BME280_temperature;BME280_humidity;BME280_pressure;Samples;Min_cycle;Max_cycle;Signal;HPM_P1;HPM_P2
2022/12/21 00:00:16;;;;;;;27.10;14.00;;;;;;;8.59;100.00;100981.50;5032963;28;20491;-72
2022/12/21 00:02:41;;;;;;;25.00;12.63;;;;;;;8.60;100.00;100979.72;5050764;28;20480;-72
2022/12/21 00:05:08;;;;;;;27.08;14.65;;;;;;;8.61;100.00;100989.31;5050851;28;20365;-72
2022/12/21 00:07:33;;;;;;;27.63;16.00;;;;;;;8.60;100.00;100977.88;5050817;28;20040;-72
2022/12/21 00:09:58;;;;;;;29.83;14.77;;;;;;;8.58;100.00;100974.56;5050908;28;20388;-72
2022/12/21 00:12:24;;;;;;;26.75;13.23;;;;;;;8.59;100.00;100972.72;5050835;28;20500;-73
2022/12/21 00:14:49;;;;;;;29.20;14.30;;;;;;;8.57;100.00;100972.91;5050783;28;20028;-72
2022/12/21 00:17:16;;;;;;;30.13;15.45;;;;;;;8.56;100.00;100972.06;5050603;28;20029;-72
2022/12/21 00:19:43;;;;;;;29.27;15.15;;;;;;;8.54;100.00;100960.81;5050639;28;20114;-72
2022/12/21 00:22:08;;;;;;;28.20;14.32;;;;;;;8.52;100.00;100954.03;5050850;28;20052;-72
2022/12/21 00:24:34;;;;;;;28.63;15.77;;;;;;;8.53;100.00;100966.28;5050644;28;20476;-72
2022/12/21 00:26:59;;;;;;;27.50;15.43;;;;;;;8.53;100.00;100966.28;5032701;28;20473;-72
2022/12/21 00:29:24;;;;;;;24.58;13.48;;;;;;;8.50;100.00;100964.81;5050520;28;20369;-72
2022/12/21 00:31:50;;;;;;;31.77;16.67;;;;;;;8.47;100.00;100965.19;5032367;28;20040;-72
2022/12/21 00:34:19;;;;;;;29.45;14.77;;;;;;;8.50;100.00;100962.16;5050452;28;20025;-72
2022/12/21 00:36:45;;;;;;;27.63;14.88;;;;;;;8.51;100.00;100969.16;5050407;28;20028;-72
2022/12/21 00:39:14;;;;;;;28.83;15.68;;;;;;;8.52;100.00;100978.78;5050202;28;20446;-72
2022/12/21 00:41:39;;;;;;;31.95;16.05;;;;;;;8.51;100.00;100976.28;5050192;28;20033;-72
2022/12/21 00:44:05;;;;;;;31.98;16.70;;;;;;;8.52;100.00;100984.09;5050169;28;20036;-73
2022/12/21 00:46:32;;;;;;;29.40;15.50;;;;;;;8.44;100.00;100968.22;5050064;28;20104;-72
2022/12/21 00:48:59;;;;;;;29.67;14.73;;;;;;;8.50;100.00;100988.75;5050119;28;20060;-73
2022/12/21 00:51:26;;;;;;;30.42;17.30;;;;;;;8.48;100.00;100979.31;5050035;28;20078;-72
2022/12/21 00:53:53;;;;;;;31.52;16.38;;;;;;;8.49;100.00;100983.63;5050225;28;20400;-72
2022/12/21 00:56:19;;;;;;;33.15;16.02;;;;;;;8.49;100.00;100986.28;5050039;28;20033;-72
2022/12/21 00:58:44;;;;;;;32.30;16.85;;;;;;;8.44;100.00;100968.22;5049839;28;20494;-72
2022/12/21 01:01:16;;;;;;;32.85;15.98;;;;;;;8.46;100.00;100973.34;5049936;28;20032;-72
2022/12/21 01:03:41;;;;;;;31.85;16.23;;;;;;;8.45;100.00;100984.97;5049996;28;20035;-72
2022/12/21 01:06:13;;;;;;;30.17;15.50;;;;;;;8.40;100.00;100990.00;5049841;28;20048;-72
2022/12/21 01:08:38;;;;;;;30.75;17.27;;;;;;;8.46;100.00;101002.56;5032125;28;20433;-72
2022/12/21 01:11:03;;;;;;;31.85;16.80;;;;;;;8.46;100.00;101005.22;5049746;28;20124;-72
2022/12/21 01:13:31;;;;;;;31.52;15.10;;;;;;;8.45;100.00;101017.69;5031196;28;20053;-72
2022/12/21 01:15:57;;;;;;;32.80;17.33;;;;;;;8.45;100.00;101014.22;5049643;28;20044;-72
2022/12/21 01:18:23;;;;;;;29.40;15.07;;;;;;;8.44;100.00;101015.22;5049626;28;20033;-73
2022/12/21 01:20:51;;;;;;;33.05;14.77;;;;;;;8.45;100.00;101022.19;5031519;28;20464;-72
2022/12/21 01:23:17;;;;;;;31.27;14.95;;;;;;;8.42;100.00;101012.75;5049646;28;20040;-72
2022/12/21 01:25:44;;;;;;;33.42;16.85;;;;;;;8.43;100.00;101010.91;5049487;28;20052;-72
2022/12/21 01:28:10;;;;;;;29.02;14.32;;;;;;;8.41;100.00;101011.09;5049452;28;20036;-72
2022/12/21 01:30:35;;;;;;;28.42;15.25;;;;;;;8.39;100.00;101013.09;5049477;28;20032;-72
2022/12/21 01:33:01;;;;;;;33.67;16.40;;;;;;;8.41;100.00;101005.78;5049344;28;20028;-72
2022/12/21 01:35:26;;;;;;;32.92;16.67;;;;;;;8.42;100.00;101009.25;5049402;28;20403;-72
2022/12/21 01:37:52;;;;;;;34.92;17.23;;;;;;;8.37;100.00;100999.13;5049614;28;20033;-72
2022/12/21 01:40:17;;;;;;;29.27;15.82;;;;;;;8.41;100.00;101002.28;5031745;28;20691;-72
2022/12/21 01:42:42;;;;;;;34.13;16.65;;;;;;;8.40;100.00;101014.75;5031545;28;20459;-72
2022/12/21 01:45:28;;;;;;;29.00;15.52;;;;;;;8.40;100.00;101014.75;5049361;28;20036;-72
2022/12/21 01:47:57;;;;;;;33.72;15.25;;;;;;;8.38;100.00;101022.03;5049357;28;20029;-72
2022/12/21 01:50:49;;;;;;;35.42;17.38;;;;;;;8.30;100.00;101006.97;5049007;28;20476;-72
2022/12/21 01:53:31;;;;;;;30.67;15.48;;;;;;;8.33;100.00;101017.28;5049015;28;20152;-72
2022/12/21 01:55:59;;;;;;;32.35;16.65;;;;;;;8.34;100.00;101018.09;5049189;28;20052;-73
2022/12/21 01:58:28;;;;;;;34.45;15.68;;;;;;;8.30;100.00;101016.78;5049149;28;20059;-73
2022/12/21 02:00:57;;;;;;;33.92;17.48;;;;;;;8.32;100.00;101023.56;5049187;28;20029;-73
2022/12/21 02:03:26;;;;;;;30.13;16.38;;;;;;;8.25;100.00;101016.50;5049080;28;20356;-72
2022/12/21 02:06:02;;;;;;;33.60;15.77;;;;;;;8.30;100.00;101022.09;5049064;28;20456;-72
2022/12/21 02:08:27;;;;;;;33.28;16.42;;;;;;;8.26;100.00;101010.19;5049101;28;20044;-72
2022/12/21 02:10:54;;;;;;;31.05;16.10;;;;;;;8.29;100.00;101012.47;5049125;28;20029;-72
2022/12/21 02:13:20;;;;;;;31.77;15.05;;;;;;;8.28;100.00;101005.53;5048929;28;20543;-72
2022/12/21 02:16:00;;;;;;;30.17;16.10;;;;;;;8.25;100.00;100998.75;5049385;28;20116;-72
2022/12/21 02:18:50;;;;;;;30.83;16.88;;;;;;;8.28;100.00;101002.88;5048917;28;20543;-72
2022/12/21 02:21:40;;;;;;;31.48;16.52;;;;;;;8.27;100.00;101010.00;5049016;28;20029;-72
2022/12/21 02:24:08;;;;;;;27.48;14.52;;;;;;;8.27;100.00;101004.69;5048753;28;20451;-72
2022/12/21 02:26:51;;;;;;;32.22;14.55;;;;;;;8.25;100.00;101011.16;5050534;28;20099;-72
2022/12/21 02:29:38;;;;;;;30.10;16.13;;;;;;;8.25;100.00;101006.72;5052821;28;20471;-72
2022/12/21 02:32:14;;;;;;;31.80;15.70;;;;;;;8.21;100.00;100991.28;5052609;28;20038;-72
2022/12/21 02:34:58;;;;;;;31.40;15.77;;;;;;;8.17;100.00;100980.19;5052677;28;20029;-72
2022/12/21 02:37:59;;;;;;;32.60;16.08;;;;;;;8.24;100.00;100985.63;5052626;28;20167;-72
2022/12/21 02:40:36;;;;;;;31.38;14.55;;;;;;;8.21;100.00;100980.66;5052393;28;20037;-72
2022/12/21 02:46:01;;;;;;;29.50;14.73;;;;;;;8.17;100.00;100998.78;5052759;28;20068;-72
2022/12/21 02:48:38;;;;;;;31.55;16.88;;;;;;;8.19;100.00;100995.94;5052415;28;20037;-72
2022/12/21 02:51:08;;;;;;;32.13;16.10;;;;;;;8.14;100.00;100996.47;5052385;28;20537;-72
2022/12/21 02:53:35;;;;;;;32.85;17.60;;;;;;;8.10;100.00;100988.03;5052155;28;20064;-73
2022/12/21 02:56:01;;;;;;;32.65;16.33;;;;;;;8.14;100.00;100988.50;5052248;28;20510;-73
2022/12/21 02:58:26;;;;;;;36.30;20.20;;;;;;;8.15;100.00;100986.66;5052170;28;20064;-73
2022/12/21 03:00:52;;;;;;;33.08;19.25;;;;;;;8.16;100.00;100997.13;5052258;28;20049;-72
2022/12/21 03:03:48;;;;;;;32.63;18.15;;;;;;;8.17;100.00;100992.63;5052029;28;20021;-72
2022/12/21 03:06:25;;;;;;;32.95;18.02;;;;;;;8.16;100.00;101005.09;5051925;28;20074;-72
2022/12/21 03:09:13;;;;;;;39.58;19.52;;;;;;;8.14;100.00;100996.47;5052040;28;20063;-73
2022/12/21 03:11:48;;;;;;;33.85;17.73;;;;;;;8.10;100.00;100979.25;5051965;28;20037;-73
2022/12/21 03:14:37;;;;;;;33.10;17.23;;;;;;;8.07;100.00;100980.44;5051834;28;20060;-72
2022/12/21 03:17:35;;;;;;;33.05;15.95;;;;;;;8.06;100.00;100972.63;5051906;28;20523;-72
2022/12/21 03:20:30;;;;;;;32.67;15.57;;;;;;;8.12;100.00;100979.88;5051778;28;20075;-72
2022/12/21 03:23:12;;;;;;;32.85;15.82;;;;;;;8.14;100.00;100983.19;5051588;28;20025;-72
2022/12/21 03:25:49;;;;;;;35.25;17.15;;;;;;;8.13;100.00;100978.91;5051850;28;20064;-72
2022/12/21 03:28:22;;;;;;;35.53;17.40;;;;;;;8.15;100.00;100974.25;5051712;28;20024;-72
2022/12/21 03:30:52;;;;;;;35.60;16.85;;;;;;;8.08;100.00;100963.47;5051654;28;20036;-72
2022/12/21 03:33:22;;;;;;;35.78;19.50;;;;;;;8.15;100.00;100971.56;5051788;28;20037;-68
2022/12/21 03:35:57;;;;;;;34.63;16.33;;;;;;;8.13;100.00;100977.06;5051537;28;20028;-69
2022/12/21 03:38:31;;;;;;;34.20;15.70;;;;;;;8.12;100.00;100971.91;5050890;28;20140;-68
2022/12/21 03:41:00;;;;;;;34.90;17.05;;;;;;;8.12;100.00;100980.72;5051445;28;20039;-68
2022/12/21 03:43:30;;;;;;;38.30;19.88;;;;;;;8.13;100.00;100979.72;5051197;28;20063;-68
2022/12/21 03:46:03;;;;;;;35.83;19.00;;;;;;;8.10;100.00;100979.25;5051376;28;20353;-69
2022/12/21 03:48:37;;;;;;;36.17;18.90;;;;;;;8.11;100.00;100975.59;5051198;28;20497;-69
2022/12/21 03:51:14;;;;;;;36.40;19.92;;;;;;;8.11;100.00;100965.78;5051253;28;20536;-68
2022/12/21 03:53:49;;;;;;;37.72;19.85;;;;;;;8.07;100.00;100959.19;5051073;28;20036;-68
2022/12/21 03:56:26;;;;;;;39.30;19.20;;;;;;;8.11;100.00;100972.94;5051006;28;20021;-68
2022/12/21 03:58:51;;;;;;;31.85;16.83;;;;;;;8.09;100.00;100986.38;5051406;28;20056;-68
2022/12/21 04:01:45;;;;;;;39.88;19.52;;;;;;;8.05;100.00;100971.00;5051030;28;20444;-68
2022/12/21 04:04:39;;;;;;;34.72;18.27;;;;;;;8.10;100.00;100972.09;5033239;28;20025;-68
2022/12/21 04:07:07;;;;;;;42.20;20.60;;;;;;;8.08;100.00;100960.81;5050892;28;20032;-68
2022/12/21 04:09:34;;;;;;;35.70;17.67;;;;;;;8.08;100.00;100963.47;5050864;28;20032;-69
2022/12/21 04:14:43;;;;;;;36.90;18.48;;;;;;;8.03;100.00;100957.06;5051172;28;20048;-68
2022/12/21 04:17:08;;;;;;;37.63;18.50;;;;;;;8.06;100.00;100968.13;5050909;28;20036;-68
2022/12/21 04:30:31;;;;;;;39.13;17.17;;;;;;;8.03;100.00;100978.31;5050784;28;20047;-68
2022/12/21 04:32:57;;;;;;;40.85;18.27;;;;;;;8.01;100.00;100972.31;5050332;28;20108;-68
2022/12/21 04:35:22;;;;;;;30.23;15.57;;;;;;;7.99;100.00;100976.97;5050414;28;20397;-68
2022/12/21 04:37:47;;;;;;;26.95;13.25;;;;;;;7.96;100.00;100975.50;5050628;28;20068;-68
2022/12/21 04:40:13;;;;;;;27.92;14.20;;;;;;;7.94;100.00;100966.06;5064536;28;20040;-69
2022/12/21 04:42:39;;;;;;;31.98;13.68;;;;;;;7.90;100.00;100971.72;5069731;28;20501;-68
2022/12/21 04:45:05;;;;;;;30.42;14.02;;;;;;;7.90;100.00;100965.59;5069702;28;20036;-69
2022/12/21 04:47:30;;;;;;;29.40;14.80;;;;;;;7.84;100.00;100966.31;5069650;28;20383;-68
2022/12/21 04:49:55;;;;;;;29.85;12.85;;;;;;;7.87;100.00;100966.78;5068875;28;20028;-68
2022/12/21 04:52:21;;;;;;;30.52;13.00;;;;;;;7.85;100.00;100968.78;5069349;28;20066;-68
2022/12/21 04:54:46;;;;;;;27.63;13.35;;;;;;;7.85;100.00;100965.31;5069367;28;20052;-68
2022/12/21 04:57:11;;;;;;;31.23;13.27;;;;;;;7.82;100.00;100961.16;5051462;28;20032;-68
2022/12/21 04:59:37;;;;;;;26.15;10.70;;;;;;;7.86;100.00;100966.97;5069387;28;20029;-68
2022/12/21 05:02:02;;;;;;;26.17;12.80;;;;;;;7.83;100.00;100960.19;5069613;28;20066;-69
2022/12/21 05:04:28;;;;;;;28.50;14.30;;;;;;;7.81;100.00;100943.59;5051541;28;20391;-68
2022/12/21 05:06:54;;;;;;;31.90;12.90;;;;;;;7.79;100.00;100932.31;5069272;28;20043;-68
2022/12/21 05:09:20;;;;;;;23.80;11.30;;;;;;;7.76;100.00;100938.00;5069350;28;20112;-68
2022/12/21 05:11:45;;;;;;;28.50;10.90;;;;;;;7.78;100.00;100956.38;5069203;28;20033;-68
2022/12/21 05:14:11;;;;;;;26.63;11.60;;;;;;;7.52;100.00;100919.53;5069174;28;20040;-68
2022/12/21 05:16:38;;;;;;;25.58;12.57;;;;;;;7.74;100.00;100945.28;5069251;28;20036;-68
2022/12/21 05:19:03;;;;;;;27.85;11.50;;;;;;;7.75;100.00;100944.28;5069189;28;20120;-68
2022/12/21 05:21:29;;;;;;;25.77;12.45;;;;;;;7.75;100.00;100946.94;5051151;28;20123;-68
2022/12/21 05:23:54;;;;;;;22.52;11.75;;;;;;;7.76;100.00;100947.78;5050901;28;20047;-68
2022/12/21 05:26:20;;;;;;;28.65;12.93;;;;;;;7.72;100.00;100941.97;5069002;28;20053;-68
2022/12/21 05:28:46;;;;;;;26.25;11.73;;;;;;;7.75;100.00;100956.72;5069255;28;20394;-68
2022/12/21 05:31:13;;;;;;;24.17;11.15;;;;;;;7.74;100.00;100963.88;5069071;28;20859;-68
2022/12/21 05:33:38;;;;;;;27.10;13.98;;;;;;;7.73;100.00;100970.19;5068956;28;20032;-68
2022/12/21 05:36:05;;;;;;;27.23;13.35;;;;;;;7.73;100.00;100970.19;5068999;28;20038;-68
2022/12/21 05:38:31;;;;;;;26.40;11.38;;;;;;;7.71;100.00;100955.44;5062821;28;20113;-68
2022/12/21 05:40:56;;;;;;;29.23;13.77;;;;;;;7.59;100.00;100945.22;5048890;28;20446;-68
2022/12/21 05:43:21;;;;;;;27.45;13.60;;;;;;;7.72;100.00;100957.91;5048818;28;20021;-72
2022/12/21 05:45:47;;;;;;;28.60;13.88;;;;;;;7.69;100.00;100956.44;5048913;28;20037;-73
2022/12/21 05:48:12;;;;;;;28.05;14.57;;;;;;;7.70;100.00;100951.94;5048884;28;20039;-72
2022/12/21 05:50:41;;;;;;;30.20;15.50;;;;;;;7.67;100.00;100944.34;5048748;28;20389;-73
2022/12/21 05:53:08;;;;;;;26.67;13.27;;;;;;;7.66;100.00;100945.34;5048684;28;20115;-73
2022/12/21 05:55:34;;;;;;;25.90;13.27;;;;;;;7.63;100.00;100938.56;5048687;28;20535;-72
2022/12/21 05:57:59;;;;;;;40.80;12.40;;;;;;;7.65;100.00;100954.28;5048695;28;20033;-72
2022/12/21 06:00:25;;;;;;;32.92;14.55;;;;;;;7.61;100.00;100939.72;5050276;28;20032;-72
2022/12/21 06:02:50;;;;;;;27.40;13.38;;;;;;;7.54;100.00;100920.19;5051557;28;20396;-72
2022/12/21 06:05:16;;;;;;;28.55;14.65;;;;;;;7.59;100.00;100931.94;5052734;28;20468;-72
2022/12/21 06:07:41;;;;;;;27.42;13.57;;;;;;;7.52;100.00;100924.84;5053084;28;20368;-72
2022/12/21 06:10:07;;;;;;;25.83;12.80;;;;;;;7.44;100.00;100923.91;5051763;28;20044;-72
2022/12/21 06:12:33;;;;;;;26.83;13.27;;;;;;;7.43;100.00;100935.50;5052850;28;20350;-72
2022/12/21 06:14:59;;;;;;;25.17;12.80;;;;;;;7.38;100.00;100923.78;5052623;28;20983;-72
2022/12/21 06:17:29;;;;;;;29.90;15.43;;;;;;;7.27;100.00;100906.41;5052479;28;20052;-72
2022/12/21 06:19:54;;;;;;;29.73;13.35;;;;;;;7.30;100.00;100932.59;5042698;28;20400;-72
2022/12/21 06:22:20;;;;;;;27.27;12.95;;;;;;;7.28;100.00;100926.63;5052516;28;20025;-72
2022/12/21 06:24:45;;;;;;;26.45;14.05;;;;;;;7.30;100.00;100939.72;5052124;28;20479;-72
2022/12/21 06:27:10;;;;;;;26.40;12.95;;;;;;;7.27;100.00;100932.13;5052630;28;20570;-72
2022/12/21 06:29:36;;;;;;;24.15;11.68;;;;;;;7.31;100.00;100942.22;5052331;28;20052;-72
2022/12/21 06:32:01;;;;;;;24.75;12.82;;;;;;;7.25;100.00;100930.44;5052292;28;20106;-72
2022/12/21 06:34:27;;;;;;;27.88;14.23;;;;;;;7.28;100.00;100942.53;5052079;28;20053;-72
2022/12/21 06:36:52;;;;;;;28.33;12.30;;;;;;;7.30;100.00;100931.78;5052038;28;20041;-72
2022/12/21 06:39:18;;;;;;;23.88;12.27;;;;;;;7.25;100.00;100930.44;5064483;28;20093;-72
2022/12/21 06:41:43;;;;;;;24.85;12.75;;;;;;;7.23;100.00;100929.81;5071979;28;20051;-72
2022/12/21 06:44:08;;;;;;;23.27;9.73;;;;;;;7.29;100.00;100935.44;5072092;28;20054;-72
2022/12/21 06:46:34;;;;;;;28.55;12.57;;;;;;;7.24;100.00;100946.56;5072040;28;20028;-72
2022/12/21 06:48:59;;;;;;;23.17;10.27;;;;;;;7.24;100.00;100944.72;5071799;28;20021;-72
2022/12/21 06:51:25;;;;;;;22.40;11.05;;;;;;;7.22;100.00;100930.81;5071818;28;20551;-72
2022/12/21 06:53:53;;;;;;;24.67;10.70;;;;;;;7.20;100.00;100932.81;5071820;28;20044;-72
2022/12/21 06:56:29;;;;;;;24.10;11.18;;;;;;;7.16;100.00;100941.28;5071706;28;20051;-73
2022/12/21 06:58:55;;;;;;;21.08;9.48;;;;;;;7.10;100.00;100939.31;5071790;28;20107;-72
2022/12/21 07:01:26;;;;;;;22.13;10.05;;;;;;;7.10;100.00;100944.59;5071731;28;20147;-72
2022/12/21 07:03:52;;;;;;;18.63;8.10;;;;;;;7.08;100.00;100949.28;5050309;28;20555;-72
2022/12/21 07:06:20;;;;;;;19.92;9.00;;;;;;;7.04;100.00;100946.13;5066997;28;20115;-72
2022/12/21 07:08:47;;;;;;;21.67;8.98;;;;;;;7.02;100.00;100956.91;5071547;28;20376;-72
2022/12/21 07:11:15;;;;;;;18.77;9.00;;;;;;;7.00;100.00;100956.25;5071147;28;20028;-72
2022/12/21 07:13:43;;;;;;;21.15;10.05;;;;;;;7.03;100.00;100963.03;5071172;28;20020;-72
2022/12/21 07:16:09;;;;;;;20.02;8.18;;;;;;;7.06;100.00;100969.84;5071394;28;20031;-72
2022/12/21 07:18:36;;;;;;;22.92;9.27;;;;;;;7.06;100.00;100951.28;5071327;28;20115;-72
2022/12/21 07:21:05;;;;;;;20.67;9.02;;;;;;;7.09;100.00;100967.66;5071353;28;20028;-72
2022/12/21 07:23:32;;;;;;;22.48;7.97;;;;;;;7.07;100.00;100952.91;5071251;28;20486;-74
2022/12/21 07:25:57;;;;;;;18.95;7.75;;;;;;;7.09;100.00;100958.88;5071300;28;20024;-72
2022/12/21 07:28:24;;;;;;;21.35;7.82;;;;;;;7.07;100.00;100959.03;5071086;28;20060;-72
2022/12/21 07:30:51;;;;;;;18.42;7.82;;;;;;;7.07;100.00;100969.66;5052944;28;20028;-72
2022/12/21 07:33:18;;;;;;;20.85;8.40;;;;;;;7.07;100.00;100963.53;5070953;28;20037;-68
2022/12/21 07:35:43;;;;;;;20.65;7.72;;;;;;;7.06;100.00;100968.00;5053067;28;20028;-68
2022/12/21 07:38:09;;;;;;;19.60;8.45;;;;;;;7.06;100.00;100973.31;5070904;28;20395;-68
2022/12/21 07:40:34;;;;;;;19.52;7.82;;;;;;;7.06;100.00;100969.84;5051429;28;20115;-68
2022/12/21 07:43:00;;;;;;;20.85;9.15;;;;;;;7.06;100.00;100981.25;5051316;28;20032;-68
2022/12/21 07:45:26;;;;;;;19.83;9.30;;;;;;;6.98;100.00;100974.16;5050887;28;20051;-68
2022/12/21 07:47:55;;;;;;;18.30;9.00;;;;;;;7.05;100.00;100986.72;5051378;28;20053;-69
2022/12/21 07:50:20;;;;;;;20.13;8.10;;;;;;;6.98;100.00;100991.91;5050402;28;20033;-68
2022/12/21 07:52:46;;;;;;;19.95;7.65;;;;;;;7.00;100.00;100996.03;5050891;28;20028;-68
2022/12/21 07:55:11;;;;;;;22.38;9.70;;;;;;;6.99;100.00;100998.84;5051154;28;20121;-68
2022/12/21 07:57:37;;;;;;;25.77;11.00;;;;;;;7.01;100.00;101005.63;5050977;28;20079;-67
2022/12/21 08:00:03;;;;;;;19.23;7.40;;;;;;;6.99;100.00;101015.56;5050919;28;20158;-67
2022/12/21 08:02:29;;;;;;;19.20;7.43;;;;;;;6.94;100.00;101011.78;5050927;28;20032;-67
2022/12/21 08:04:55;;;;;;;14.52;6.20;;;;;;;7.01;100.00;101028.69;5050898;28;20037;-67
2022/12/21 08:07:20;;;;;;;18.75;7.13;;;;;;;7.02;100.00;101025.88;5050930;28;20029;-67
2022/12/21 08:09:45;;;;;;;15.38;6.47;;;;;;;7.00;100.00;101013.78;5050915;28;20476;-68
2022/12/21 08:12:11;;;;;;;17.33;5.85;;;;;;;6.99;100.00;101020.88;5033008;28;20491;-67
2022/12/21 08:14:36;;;;;;;16.15;5.40;;;;;;;6.98;100.00;101018.41;5050813;28;20425;-67
2022/12/21 08:17:02;;;;;;;15.90;5.35;;;;;;;6.95;100.00;101016.91;5050785;28;20039;-67
2022/12/21 08:19:28;;;;;;;17.30;6.32;;;;;;;6.88;100.00;101007.97;5050635;28;20430;-67
2022/12/21 08:21:53;;;;;;;13.95;5.75;;;;;;;6.90;100.00;101005.19;5050898;28;20033;-68
2022/12/21 08:24:18;;;;;;;13.10;6.15;;;;;;;6.84;100.00;101005.81;5049274;28;20056;-68
2022/12/21 08:26:44;;;;;;;12.70;5.05;;;;;;;6.78;100.00;101005.50;5068835;28;20097;-68
2022/12/21 08:29:13;;;;;;;10.52;4.00;;;;;;;6.77;100.00;101025.06;5069901;28;20032;-68
2022/12/21 08:31:39;;;;;;;15.90;6.05;;;;;;;6.76;100.00;101025.25;5056025;28;20418;-67
2022/12/21 08:34:05;;;;;;;10.20;4.65;;;;;;;6.78;100.00;101023.22;5047086;28;20025;-67
2022/12/21 08:36:30;;;;;;;14.00;5.10;;;;;;;6.77;100.00;101021.59;5058459;28;20029;-67
2022/12/21 08:38:57;;;;;;;14.32;5.18;;;;;;;6.80;100.00;101021.25;5069773;28;20083;-67
2022/12/21 08:41:22;;;;;;;16.38;5.38;;;;;;;6.85;100.00;101018.09;5069637;28;20032;-68
2022/12/21 08:43:47;;;;;;;15.35;6.25;;;;;;;6.90;100.00;101021.91;5069613;28;20467;-67
2022/12/21 08:46:13;;;;;;;13.75;5.57;;;;;;;6.95;100.00;101019.56;5061055;28;20069;-68
2022/12/21 08:48:39;;;;;;;19.42;7.38;;;;;;;6.91;100.00;100999.69;5049789;28;20052;-66
2022/12/21 08:51:06;;;;;;;16.70;5.43;;;;;;;7.03;100.00;101022.22;5049924;28;20056;-67
2022/12/21 08:53:31;;;;;;;16.17;5.93;;;;;;;7.03;100.00;101001.00;5049777;28;20036;-67
2022/12/21 08:55:57;;;;;;;11.95;4.55;;;;;;;7.20;100.00;101006.25;5049808;28;20033;-67
2022/12/21 08:58:23;;;;;;;17.83;5.50;;;;;;;7.21;100.00;101007.91;5049877;28;20036;-67
2022/12/21 09:00:54;;;;;;;15.48;6.30;;;;;;;7.31;100.00;101019.16;5032266;28;20128;-67
2022/12/21 09:03:20;;;;;;;14.90;5.82;;;;;;;7.36;100.00;101018.63;5049938;28;20460;-67
2022/12/21 09:05:46;;;;;;;17.35;6.53;;;;;;;7.42;100.00;101023.25;5049780;28;20154;-67
2022/12/21 09:08:12;;;;;;;16.05;6.30;;;;;;;7.39;100.00;101024.44;5049771;28;20032;-67
2022/12/21 09:10:38;;;;;;;14.55;6.50;;;;;;;7.44;100.00;101023.91;5049611;28;20060;-66
2022/12/21 09:13:03;;;;;;;21.10;6.97;;;;;;;7.49;100.00;101026.88;5054435;28;20078;-66
2022/12/21 09:15:29;;;;;;;15.15;6.80;;;;;;;7.53;100.00;101020.22;5069289;28;20364;-66
2022/12/21 09:17:55;;;;;;;20.88;6.88;;;;;;;7.56;100.00;101021.72;5069191;28;20494;-66
2022/12/21 09:20:20;;;;;;;20.63;6.95;;;;;;;7.54;100.00;101007.78;5069149;28;20036;-66
2022/12/21 09:22:45;;;;;;;17.00;7.65;;;;;;;7.61;100.00;101016.72;5069024;28;20360;-66
2022/12/21 09:25:11;;;;;;;18.90;6.80;;;;;;;7.65;100.00;101005.59;5069061;28;20071;-66
2022/12/21 09:27:38;;;;;;;16.02;7.43;;;;;;;7.69;100.00;101000.75;5068992;28;20356;-66
2022/12/21 09:30:04;;;;;;;16.67;6.75;;;;;;;7.75;100.00;101001.88;5069182;28;20039;-66
2022/12/21 09:32:29;;;;;;;20.67;7.80;;;;;;;7.77;100.00;101003.34;5068826;28;20125;-66
2022/12/21 09:34:54;;;;;;;20.75;8.98;;;;;;;7.80;100.00;101007.47;5068607;28;20123;-66
2022/12/21 09:37:20;;;;;;;17.50;7.10;;;;;;;7.79;100.00;101009.31;5069066;28;20036;-70
2022/12/21 09:39:45;;;;;;;16.05;8.13;;;;;;;7.87;100.00;101021.72;5068422;28;20052;-72
2022/12/21 09:42:28;;;;;;;21.20;8.35;;;;;;;7.92;100.00;101029.19;5068897;28;20387;-72
2022/12/21 09:45:07;;;;;;;22.17;9.82;;;;;;;7.94;100.00;101029.81;5068884;28;20016;-71
2022/12/21 09:47:42;;;;;;;17.90;7.88;;;;;;;7.95;100.00;101028.81;5068952;28;20024;-71
2022/12/21 09:50:17;;;;;;;22.45;8.65;;;;;;;7.94;100.00;101027.16;5068949;28;20020;-72
2022/12/21 09:52:47;;;;;;;29.85;9.30;;;;;;;7.87;100.00;101027.03;5048927;28;20028;-70
2022/12/21 09:55:22;;;;;;;22.88;8.27;;;;;;;7.86;100.00;101030.69;5049541;28;20029;-70
2022/12/21 09:57:50;;;;;;;18.77;8.80;;;;;;;7.74;100.00;101019.63;5049184;28;20029;-71
2022/12/21 10:00:21;;;;;;;19.63;7.88;;;;;;;7.77;100.00;101031.72;5049559;28;20025;-71
2022/12/21 10:03:10;;;;;;;24.85;11.43;;;;;;;7.77;100.00;101037.88;5049113;28;20540;-71
2022/12/21 10:06:12;;;;;;;25.52;9.48;;;;;;;7.82;100.00;101037.34;5049011;28;20312;-65
2022/12/21 10:08:58;;;;;;;22.05;9.50;;;;;;;7.92;100.00;101031.81;5049181;28;20025;-66
2022/12/21 10:11:49;;;;;;;24.73;10.82;;;;;;;7.98;100.00;101029.28;5049083;28;20025;-66
2022/12/21 10:14:45;;;;;;;25.08;10.82;;;;;;;8.10;100.00;101035.84;5042254;28;20040;-67
2022/12/21 10:17:47;;;;;;;25.05;11.70;;;;;;;8.21;100.00;101029.31;5049820;28;20052;-67
2022/12/21 10:20:48;;;;;;;26.85;10.98;;;;;;;8.20;100.00;101026.81;5044669;28;20491;-67
2022/12/21 10:23:27;;;;;;;22.90;10.13;;;;;;;8.21;100.00;101016.03;5037729;28;20593;-67
2022/12/21 10:25:58;;;;;;;22.70;11.13;;;;;;;8.24;100.00;101026.28;5042635;28;20040;-67
2022/12/21 10:28:26;;;;;;;23.10;10.27;;;;;;;8.29;100.00;101028.44;5042822;28;20087;-66
2022/12/21 10:31:05;;;;;;;23.83;12.00;;;;;;;8.32;100.00;101030.72;5048797;28;20043;-66
2022/12/21 10:33:36;;;;;;;26.80;11.13;;;;;;;8.33;100.00;101019.06;5048679;28;20520;-66
2022/12/21 10:36:04;;;;;;;26.42;9.80;;;;;;;8.38;100.00;101031.84;5053608;28;20024;-66
2022/12/21 10:38:33;;;;;;;22.17;9.10;;;;;;;8.36;100.00;101032.03;5047824;28;20048;-67
2022/12/21 10:41:00;;;;;;;20.30;8.40;;;;;;;8.31;100.00;101021.94;5051549;28;20511;-66
2022/12/21 10:43:26;;;;;;;19.67;9.02;;;;;;;8.31;100.00;101023.78;5051254;28;20056;-66
2022/12/21 10:45:51;;;;;;;19.52;8.00;;;;;;;8.29;100.00;101018.63;5052589;28;20047;-66
2022/12/21 10:48:17;;;;;;;26.23;9.70;;;;;;;8.28;100.00;101009.00;5055700;28;20036;-66
2022/12/21 10:50:50;;;;;;;21.95;8.05;;;;;;;8.29;100.00;101010.66;5055628;28;20029;-66
2022/12/21 10:53:26;;;;;;;27.70;8.70;;;;;;;8.28;100.00;100998.38;5054802;28;20495;-66
2022/12/21 10:55:59;;;;;;;24.52;9.07;;;;;;;8.27;100.00;100999.34;5055771;28;20028;-66
2022/12/21 10:58:31;;;;;;;15.75;7.47;;;;;;;8.29;100.00;101000.03;5037620;28;20021;-66
2022/12/21 11:00:59;;;;;;;21.02;8.00;;;;;;;8.30;100.00;100999.00;5056484;28;20047;-66
2022/12/21 11:03:36;;;;;;;19.13;8.63;;;;;;;8.28;100.00;100990.41;5054217;28;20703;-66
2022/12/21 11:06:20;;;;;;;29.35;9.13;;;;;;;8.33;100.00;100992.50;5056542;28;20024;-66
2022/12/21 11:08:47;;;;;;;17.23;7.32;;;;;;;8.31;100.00;100981.25;5055655;28;20027;-66
2022/12/21 11:11:31;;;;;;;19.42;9.38;;;;;;;8.28;100.00;100987.75;5054668;28;20025;-66
2022/12/21 11:14:17;;;;;;;21.80;8.55;;;;;;;8.27;100.00;100991.38;5054971;28;20054;-66
2022/12/21 11:16:44;;;;;;;20.83;7.93;;;;;;;8.19;100.00;100987.97;5052121;28;20037;-66
2022/12/21 11:19:21;;;;;;;18.08;7.68;;;;;;;8.19;100.00;100982.66;5052335;28;20424;-65
2022/12/21 11:21:50;;;;;;;19.95;9.38;;;;;;;8.17;100.00;100984.66;5052151;28;20059;-65
2022/12/21 11:24:31;;;;;;;18.67;7.78;;;;;;;8.15;100.00;100979.56;5052135;28;20162;-65
2022/12/21 11:27:12;;;;;;;19.90;8.40;;;;;;;8.13;100.00;100981.56;5052232;28;20029;-66
2022/12/21 11:29:48;;;;;;;22.17;10.48;;;;;;;8.08;100.00;100995.34;5052064;28;20116;-65
2022/12/21 11:32:15;;;;;;;19.85;9.02;;;;;;;8.05;100.00;100993.06;5051908;28;20031;-65
2022/12/21 11:34:44;;;;;;;22.35;8.63;;;;;;;8.06;100.00;100986.72;5052050;28;20068;-66
2022/12/21 11:37:34;;;;;;;22.67;8.32;;;;;;;8.12;100.00;100991.34;5051898;28;20086;-65
2022/12/21 11:40:11;;;;;;;22.80;9.45;;;;;;;8.13;100.00;100984.22;5051629;28;20427;-65